sensor_id;sensor_type;location;lat;lon;timestamp;P1;durP1;ratioP1;P2;durP2;ratioP2
31990;SDS011;18508;49.386;8.370;2023-10-13T00:01:54;16.85;;;8.45;;
31990;SDS011;18508;49.386;8.370;2023-10-13T00:04:25;11.85;;;7.47;;
31990;SDS011;18508;49.386;8.370;2023-10-13T00:06:55;18.77;;;8.45;;
31990;SDS011;18508;49.386;8.370;2023-10-13T00:09:23;14.45;;;8.05;;
31990;SDS011;18508;49.386;8.370;2023-10-13T00:11:52;16.70;;;8.73;;
31990;SDS011;18508;49.386;8.370;2023-10-13T00:14:21;15.88;;;8.25;;
31990;SDS011;18508;49.386;8.370;2023-10-13T00:16:57;16.17;;;8.27;;
31990;SDS011;18508;49.386;8.370;2023-10-13T00:22:07;18.00;;;8.43;;
31990;SDS011;18508;49.386;8.370;2023-10-13T00:24:39;15.55;;;8.10;;
31990;SDS011;18508;49.386;8.370;2023-10-13T00:27:12;13.02;;;8.38;;
31990;SDS011;18508;49.386;8.370;2023-10-13T00:29:57;13.15;;;8.05;;
31990;SDS011;18508;49.386;8.370;2023-10-13T00:32:44;17.15;;;8.75;;
31990;SDS011;18508;49.386;8.370;2023-10-13T00:35:17;16.83;;;8.40;;
31990;SDS011;18508;49.386;8.370;2023-10-13T00:37:52;17.98;;;8.43;;
31990;SDS011;18508;49.386;8.370;2023-10-13T00:40:20;13.50;;;6.93;;
31990;SDS011;18508;49.386;8.370;2023-10-13T00:43:06;17.70;;;8.70;;
31990;SDS011;18508;49.386;8.370;2023-10-13T00:45:50;18.65;;;8.18;;
31990;SDS011;18508;49.386;8.370;2023-10-13T00:48:23;14.80;;;7.18;;
31990;SDS011;18508;49.386;8.370;2023-10-13T00:50:58;14.60;;;8.50;;
31990;SDS011;18508;49.386;8.370;2023-10-13T00:53:31;15.32;;;6.88;;
31990;SDS011;18508;49.386;8.370;2023-10-13T00:56:00;17.85;;;7.07;;
31990;SDS011;18508;49.386;8.370;2023-10-13T00:58:33;14.00;;;6.80;;
31990;SDS011;18508;49.386;8.370;2023-10-13T01:01:01;14.40;;;7.38;;
31990;SDS011;18508;49.386;8.370;2023-10-13T01:03:45;16.33;;;6.85;;
31990;SDS011;18508;49.386;8.370;2023-10-13T01:06:15;12.40;;;7.30;;
31990;SDS011;18508;49.386;8.370;2023-10-13T01:08:46;13.68;;;6.40;;
31990;SDS011;18508;49.386;8.370;2023-10-13T01:11:18;14.95;;;7.47;;
31990;SDS011;18508;49.386;8.370;2023-10-13T01:13:45;13.85;;;6.57;;
31990;SDS011;18508;49.386;8.370;2023-10-13T01:16:17;10.77;;;6.93;;
31990;SDS011;18508;49.386;8.370;2023-10-13T01:18:49;16.27;;;6.63;;
31990;SDS011;18508;49.386;8.370;2023-10-13T01:21:17;16.27;;;6.53;;
31990;SDS011;18508;49.386;8.370;2023-10-13T01:23:48;12.82;;;6.53;;
31990;SDS011;18508;49.386;8.370;2023-10-13T01:26:17;11.43;;;6.00;;
31990;SDS011;18508;49.386;8.370;2023-10-13T01:28:50;14.07;;;6.53;;
31990;SDS011;18508;49.386;8.370;2023-10-13T01:31:20;18.25;;;6.72;;
31990;SDS011;18508;49.386;8.370;2023-10-13T01:33:54;14.90;;;6.70;;
31990;SDS011;18508;49.386;8.370;2023-10-13T01:36:26;16.65;;;6.78;;
31990;SDS011;18508;49.386;8.370;2023-10-13T01:38:56;11.68;;;6.47;;
31990;SDS011;18508;49.386;8.370;2023-10-13T01:41:27;14.65;;;6.57;;
31990;SDS011;18508;49.386;8.370;2023-10-13T01:43:57;15.43;;;6.47;;
31990;SDS011;18508;49.386;8.370;2023-10-13T01:46:25;15.23;;;6.25;;
31990;SDS011;18508;49.386;8.370;2023-10-13T01:48:54;15.00;;;6.55;;
31990;SDS011;18508;49.386;8.370;2023-10-13T01:51:23;15.05;;;7.10;;
31990;SDS011;18508;49.386;8.370;2023-10-13T01:53:56;13.40;;;6.18;;
31990;SDS011;18508;49.386;8.370;2023-10-13T01:56:24;13.02;;;7.32;;
31990;SDS011;18508;49.386;8.370;2023-10-13T01:58:52;12.95;;;7.35;;
31990;SDS011;18508;49.386;8.370;2023-10-13T02:01:20;15.15;;;7.78;;
31990;SDS011;18508;49.386;8.370;2023-10-13T02:03:54;16.65;;;7.47;;
31990;SDS011;18508;49.386;8.370;2023-10-13T02:06:29;11.45;;;6.90;;
31990;SDS011;18508;49.386;8.370;2023-10-13T02:09:01;15.05;;;7.38;;
31990;SDS011;18508;49.386;8.370;2023-10-13T02:11:37;16.23;;;8.50;;
31990;SDS011;18508;49.386;8.370;2023-10-13T02:14:05;14.57;;;7.13;;
31990;SDS011;18508;49.386;8.370;2023-10-13T02:16:33;14.88;;;7.18;;
31990;SDS011;18508;49.386;8.370;2023-10-13T02:19:03;20.17;;;7.63;;
31990;SDS011;18508;49.386;8.370;2023-10-13T02:21:31;19.13;;;7.53;;
31990;SDS011;18508;49.386;8.370;2023-10-13T02:23:58;13.82;;;6.97;;
31990;SDS011;18508;49.386;8.370;2023-10-13T02:26:30;14.73;;;8.30;;
31990;SDS011;18508;49.386;8.370;2023-10-13T02:28:58;18.60;;;7.72;;
31990;SDS011;18508;49.386;8.370;2023-10-13T02:31:27;15.63;;;8.10;;
31990;SDS011;18508;49.386;8.370;2023-10-13T02:33:55;12.35;;;7.45;;
31990;SDS011;18508;49.386;8.370;2023-10-13T02:36:23;13.35;;;7.07;;
31990;SDS011;18508;49.386;8.370;2023-10-13T02:39:04;20.98;;;8.65;;
31990;SDS011;18508;49.386;8.370;2023-10-13T02:41:34;12.52;;;7.38;;
31990;SDS011;18508;49.386;8.370;2023-10-13T02:44:04;13.70;;;6.93;;
31990;SDS011;18508;49.386;8.370;2023-10-13T02:46:33;16.10;;;7.03;;
31990;SDS011;18508;49.386;8.370;2023-10-13T02:51:36;11.82;;;6.65;;
31990;SDS011;18508;49.386;8.370;2023-10-13T02:54:09;15.57;;;6.93;;
31990;SDS011;18508;49.386;8.370;2023-10-13T02:56:37;20.38;;;7.78;;
31990;SDS011;18508;49.386;8.370;2023-10-13T02:59:13;13.85;;;6.28;;
31990;SDS011;18508;49.386;8.370;2023-10-13T03:01:41;12.38;;;6.30;;
31990;SDS011;18508;49.386;8.370;2023-10-13T03:04:09;15.25;;;7.18;;
31990;SDS011;18508;49.386;8.370;2023-10-13T03:06:36;14.90;;;6.43;;
31990;SDS011;18508;49.386;8.370;2023-10-13T03:09:07;12.63;;;6.00;;
31990;SDS011;18508;49.386;8.370;2023-10-13T03:11:46;10.23;;;5.95;;
31990;SDS011;18508;49.386;8.370;2023-10-13T03:14:15;14.23;;;5.97;;
31990;SDS011;18508;49.386;8.370;2023-10-13T03:16:53;11.40;;;5.82;;
31990;SDS011;18508;49.386;8.370;2023-10-13T03:19:21;11.80;;;5.75;;
31990;SDS011;18508;49.386;8.370;2023-10-13T03:21:59;14.50;;;6.40;;
31990;SDS011;18508;49.386;8.370;2023-10-13T03:24:35;11.10;;;6.15;;
31990;SDS011;18508;49.386;8.370;2023-10-13T03:27:09;11.68;;;5.90;;
31990;SDS011;18508;49.386;8.370;2023-10-13T03:29:38;10.65;;;5.57;;
31990;SDS011;18508;49.386;8.370;2023-10-13T03:32:09;12.48;;;5.97;;
31990;SDS011;18508;49.386;8.370;2023-10-13T03:34:41;14.52;;;5.50;;
31990;SDS011;18508;49.386;8.370;2023-10-13T03:37:27;11.40;;;5.32;;
31990;SDS011;18508;49.386;8.370;2023-10-13T03:40:05;15.65;;;6.50;;
31990;SDS011;18508;49.386;8.370;2023-10-13T03:42:57;12.90;;;5.35;;
31990;SDS011;18508;49.386;8.370;2023-10-13T03:45:30;10.05;;;5.53;;
31990;SDS011;18508;49.386;8.370;2023-10-13T03:48:03;12.52;;;5.35;;
31990;SDS011;18508;49.386;8.370;2023-10-13T03:50:35;13.88;;;6.07;;
31990;SDS011;18508;49.386;8.370;2023-10-13T03:53:12;11.75;;;5.20;;
31990;SDS011;18508;49.386;8.370;2023-10-13T03:55:40;18.05;;;5.63;;
31990;SDS011;18508;49.386;8.370;2023-10-13T03:58:15;13.50;;;5.45;;
31990;SDS011;18508;49.386;8.370;2023-10-13T04:00:44;16.23;;;5.65;;
31990;SDS011;18508;49.386;8.370;2023-10-13T04:03:12;11.88;;;5.30;;
31990;SDS011;18508;49.386;8.370;2023-10-13T04:05:44;8.52;;;4.82;;
31990;SDS011;18508;49.386;8.370;2023-10-13T04:08:27;9.85;;;4.88;;
31990;SDS011;18508;49.386;8.370;2023-10-13T04:11:14;14.55;;;5.90;;
31990;SDS011;18508;49.386;8.370;2023-10-13T04:14:01;11.43;;;5.43;;
31990;SDS011;18508;49.386;8.370;2023-10-13T04:16:50;11.57;;;5.70;;
31990;SDS011;18508;49.386;8.370;2023-10-13T04:19:21;12.90;;;6.43;;
31990;SDS011;18508;49.386;8.370;2023-10-13T04:21:52;12.35;;;6.45;;
31990;SDS011;18508;49.386;8.370;2023-10-13T04:24:40;11.93;;;6.43;;
31990;SDS011;18508;49.386;8.370;2023-10-13T04:27:26;9.25;;;6.25;;
31990;SDS011;18508;49.386;8.370;2023-10-13T04:30:12;10.90;;;6.63;;
31990;SDS011;18508;49.386;8.370;2023-10-13T04:32:51;15.30;;;6.93;;
31990;SDS011;18508;49.386;8.370;2023-10-13T04:35:45;15.30;;;7.90;;
31990;SDS011;18508;49.386;8.370;2023-10-13T04:38:24;11.93;;;7.65;;
31990;SDS011;18508;49.386;8.370;2023-10-13T04:41:00;18.15;;;8.43;;
31990;SDS011;18508;49.386;8.370;2023-10-13T04:43:36;13.63;;;7.80;;
31990;SDS011;18508;49.386;8.370;2023-10-13T04:46:23;20.17;;;8.60;;
31990;SDS011;18508;49.386;8.370;2023-10-13T04:49:06;15.82;;;7.05;;
31990;SDS011;18508;49.386;8.370;2023-10-13T04:51:54;15.82;;;8.30;;
31990;SDS011;18508;49.386;8.370;2023-10-13T04:54:41;16.20;;;7.93;;
31990;SDS011;18508;49.386;8.370;2023-10-13T04:57:16;13.52;;;7.38;;
31990;SDS011;18508;49.386;8.370;2023-10-13T04:59:57;20.13;;;8.65;;
31990;SDS011;18508;49.386;8.370;2023-10-13T05:02:53;17.15;;;7.80;;
31990;SDS011;18508;49.386;8.370;2023-10-13T05:05:43;16.50;;;8.13;;
31990;SDS011;18508;49.386;8.370;2023-10-13T05:08:13;16.25;;;8.57;;
31990;SDS011;18508;49.386;8.370;2023-10-13T05:11:02;13.70;;;7.55;;
31990;SDS011;18508;49.386;8.370;2023-10-13T05:13:56;14.00;;;7.45;;
31990;SDS011;18508;49.386;8.370;2023-10-13T05:16:42;12.40;;;6.78;;
31990;SDS011;18508;49.386;8.370;2023-10-13T05:19:28;19.45;;;8.07;;
31990;SDS011;18508;49.386;8.370;2023-10-13T05:22:14;15.20;;;7.53;;
31990;SDS011;18508;49.386;8.370;2023-10-13T05:25:01;14.45;;;7.82;;
31990;SDS011;18508;49.386;8.370;2023-10-13T05:27:47;14.85;;;8.07;;
31990;SDS011;18508;49.386;8.370;2023-10-13T05:30:41;16.08;;;7.85;;
31990;SDS011;18508;49.386;8.370;2023-10-13T05:33:26;10.57;;;6.82;;
31990;SDS011;18508;49.386;8.370;2023-10-13T05:36:12;14.23;;;7.82;;
31990;SDS011;18508;49.386;8.370;2023-10-13T05:38:57;14.73;;;7.60;;
31990;SDS011;18508;49.386;8.370;2023-10-13T05:41:44;16.83;;;7.57;;
31990;SDS011;18508;49.386;8.370;2023-10-13T05:44:30;15.73;;;7.57;;
31990;SDS011;18508;49.386;8.370;2023-10-13T05:47:04;13.23;;;7.65;;
31990;SDS011;18508;49.386;8.370;2023-10-13T05:50:01;13.50;;;7.82;;
31990;SDS011;18508;49.386;8.370;2023-10-13T05:52:43;18.60;;;8.00;;
31990;SDS011;18508;49.386;8.370;2023-10-13T05:55:25;12.77;;;6.93;;
31990;SDS011;18508;49.386;8.370;2023-10-13T05:58:13;19.52;;;7.65;;
31990;SDS011;18508;49.386;8.370;2023-10-13T06:01:05;13.77;;;7.55;;
31990;SDS011;18508;49.386;8.370;2023-10-13T06:03:53;13.02;;;6.85;;
31990;SDS011;18508;49.386;8.370;2023-10-13T06:06:39;15.73;;;7.05;;
31990;SDS011;18508;49.386;8.370;2023-10-13T06:09:24;14.70;;;6.60;;
31990;SDS011;18508;49.386;8.370;2023-10-13T06:12:10;13.07;;;6.38;;
31990;SDS011;18508;49.386;8.370;2023-10-13T06:14:57;14.27;;;6.40;;
31990;SDS011;18508;49.386;8.370;2023-10-13T06:17:43;13.75;;;6.07;;
31990;SDS011;18508;49.386;8.370;2023-10-13T06:20:28;15.50;;;6.03;;
31990;SDS011;18508;49.386;8.370;2023-10-13T06:23:14;11.18;;;5.63;;
31990;SDS011;18508;49.386;8.370;2023-10-13T06:26:00;9.75;;;6.03;;
31990;SDS011;18508;49.386;8.370;2023-10-13T06:28:45;11.93;;;6.32;;
31990;SDS011;18508;49.386;8.370;2023-10-13T06:31:17;10.75;;;5.80;;
31990;SDS011;18508;49.386;8.370;2023-10-13T06:33:53;9.20;;;5.65;;
31990;SDS011;18508;49.386;8.370;2023-10-13T06:36:22;12.05;;;6.35;;
31990;SDS011;18508;49.386;8.370;2023-10-13T06:38:50;13.00;;;5.72;;
31990;SDS011;18508;49.386;8.370;2023-10-13T06:41:44;14.30;;;6.03;;
31990;SDS011;18508;49.386;8.370;2023-10-13T06:44:12;11.75;;;5.53;;
31990;SDS011;18508;49.386;8.370;2023-10-13T06:46:44;13.02;;;6.00;;
31990;SDS011;18508;49.386;8.370;2023-10-13T06:49:12;12.20;;;5.63;;
31990;SDS011;18508;49.386;8.370;2023-10-13T06:51:40;15.05;;;5.47;;
31990;SDS011;18508;49.386;8.370;2023-10-13T06:54:09;15.60;;;6.47;;
31990;SDS011;18508;49.386;8.370;2023-10-13T06:56:45;12.95;;;6.05;;
31990;SDS011;18508;49.386;8.370;2023-10-13T06:59:18;14.55;;;6.47;;
31990;SDS011;18508;49.386;8.370;2023-10-13T07:01:47;13.80;;;6.90;;
31990;SDS011;18508;49.386;8.370;2023-10-13T07:04:18;11.48;;;5.47;;
31990;SDS011;18508;49.386;8.370;2023-10-13T07:06:48;12.18;;;5.82;;
31990;SDS011;18508;49.386;8.370;2023-10-13T07:09:17;9.32;;;5.25;;
31990;SDS011;18508;49.386;8.370;2023-10-13T07:12:15;11.05;;;5.40;;
31990;SDS011;18508;49.386;8.370;2023-10-13T07:14:45;11.73;;;5.22;;
31990;SDS011;18508;49.386;8.370;2023-10-13T07:17:20;11.00;;;5.75;;
31990;SDS011;18508;49.386;8.370;2023-10-13T07:19:52;10.57;;;5.20;;
31990;SDS011;18508;49.386;8.370;2023-10-13T07:22:22;10.15;;;5.95;;
31990;SDS011;18508;49.386;8.370;2023-10-13T07:24:52;10.73;;;5.82;;
31990;SDS011;18508;49.386;8.370;2023-10-13T07:27:24;14.38;;;5.15;;
31990;SDS011;18508;49.386;8.370;2023-10-13T07:29:53;8.57;;;5.20;;
31990;SDS011;18508;49.386;8.370;2023-10-13T07:32:41;11.63;;;5.10;;
31990;SDS011;18508;49.386;8.370;2023-10-13T07:35:14;14.20;;;5.95;;
31990;SDS011;18508;49.386;8.370;2023-10-13T07:37:46;11.35;;;5.30;;
31990;SDS011;18508;49.386;8.370;2023-10-13T07:40:18;9.00;;;4.70;;
31990;SDS011;18508;49.386;8.370;2023-10-13T07:43:06;9.85;;;4.97;;
31990;SDS011;18508;49.386;8.370;2023-10-13T07:45:37;8.98;;;4.60;;
31990;SDS011;18508;49.386;8.370;2023-10-13T07:48:08;9.70;;;5.40;;
31990;SDS011;18508;49.386;8.370;2023-10-13T07:50:47;9.10;;;3.83;;
31990;SDS011;18508;49.386;8.370;2023-10-13T07:53:29;9.38;;;4.55;;
31990;SDS011;18508;49.386;8.370;2023-10-13T07:56:01;10.75;;;4.55;;
31990;SDS011;18508;49.386;8.370;2023-10-13T07:58:32;13.80;;;5.20;;
31990;SDS011;18508;49.386;8.370;2023-10-13T08:01:12;9.50;;;3.83;;
31990;SDS011;18508;49.386;8.370;2023-10-13T08:03:46;10.20;;;4.78;;
31990;SDS011;18508;49.386;8.370;2023-10-13T08:06:31;11.70;;;5.13;;
31990;SDS011;18508;49.386;8.370;2023-10-13T08:09:01;16.05;;;5.03;;
31990;SDS011;18508;49.386;8.370;2023-10-13T08:11:36;10.88;;;4.72;;
31990;SDS011;18508;49.386;8.370;2023-10-13T08:14:04;11.60;;;5.13;;
31990;SDS011;18508;49.386;8.370;2023-10-13T08:17:03;15.40;;;5.18;;
31990;SDS011;18508;49.386;8.370;2023-10-13T08:19:35;6.57;;;4.07;;
31990;SDS011;18508;49.386;8.370;2023-10-13T08:22:12;6.55;;;4.05;;
31990;SDS011;18508;49.386;8.370;2023-10-13T08:25:02;13.82;;;4.20;;
31990;SDS011;18508;49.386;8.370;2023-10-13T08:27:59;10.35;;;5.38;;
31990;SDS011;18508;49.386;8.370;2023-10-13T08:30:48;7.53;;;4.30;;
31990;SDS011;18508;49.386;8.370;2023-10-13T08:33:23;12.05;;;4.88;;
31990;SDS011;18508;49.386;8.370;2023-10-13T08:35:55;10.10;;;4.10;;
31990;SDS011;18508;49.386;8.370;2023-10-13T08:38:44;8.82;;;4.10;;
31990;SDS011;18508;49.386;8.370;2023-10-13T08:41:21;10.38;;;4.53;;
31990;SDS011;18508;49.386;8.370;2023-10-13T08:44:01;9.13;;;4.75;;
31990;SDS011;18508;49.386;8.370;2023-10-13T08:46:31;8.45;;;4.57;;
31990;SDS011;18508;49.386;8.370;2023-10-13T08:49:19;9.90;;;4.78;;
31990;SDS011;18508;49.386;8.370;2023-10-13T08:51:51;10.77;;;4.55;;
31990;SDS011;18508;49.386;8.370;2023-10-13T08:54:35;6.97;;;3.35;;
31990;SDS011;18508;49.386;8.370;2023-10-13T08:57:11;9.15;;;4.72;;
31990;SDS011;18508;49.386;8.370;2023-10-13T09:00:00;11.38;;;4.90;;
31990;SDS011;18508;49.386;8.370;2023-10-13T09:02:42;7.88;;;4.35;;
31990;SDS011;18508;49.386;8.370;2023-10-13T09:05:42;12.07;;;4.72;;
31990;SDS011;18508;49.386;8.370;2023-10-13T09:08:29;10.48;;;4.53;;
31990;SDS011;18508;49.386;8.370;2023-10-13T09:11:03;7.70;;;4.85;;
31990;SDS011;18508;49.386;8.370;2023-10-13T09:13:39;10.05;;;4.15;;
31990;SDS011;18508;49.386;8.370;2023-10-13T09:16:12;12.93;;;5.10;;
31990;SDS011;18508;49.386;8.370;2023-10-13T09:18:49;16.15;;;4.82;;
31990;SDS011;18508;49.386;8.370;2023-10-13T09:21:19;8.50;;;4.45;;
31990;SDS011;18508;49.386;8.370;2023-10-13T09:24:12;6.88;;;4.03;;
31990;SDS011;18508;49.386;8.370;2023-10-13T09:26:50;8.68;;;4.28;;
31990;SDS011;18508;49.386;8.370;2023-10-13T09:29:22;9.77;;;4.72;;
31990;SDS011;18508;49.386;8.370;2023-10-13T09:31:58;12.13;;;3.95;;
31990;SDS011;18508;49.386;8.370;2023-10-13T09:34:29;7.90;;;4.70;;
31990;SDS011;18508;49.386;8.370;2023-10-13T09:37:01;12.48;;;4.90;;
31990;SDS011;18508;49.386;8.370;2023-10-13T09:39:32;8.85;;;4.30;;
31990;SDS011;18508;49.386;8.370;2023-10-13T09:42:12;8.15;;;4.40;;
31990;SDS011;18508;49.386;8.370;2023-10-13T09:44:44;13.75;;;5.00;;
31990;SDS011;18508;49.386;8.370;2023-10-13T09:47:20;13.43;;;4.78;;
31990;SDS011;18508;49.386;8.370;2023-10-13T09:49:59;9.68;;;4.22;;
31990;SDS011;18508;49.386;8.370;2023-10-13T09:52:32;7.57;;;3.85;;
31990;SDS011;18508;49.386;8.370;2023-10-13T09:55:13;8.50;;;4.10;;
31990;SDS011;18508;49.386;8.370;2023-10-13T09:57:49;11.57;;;4.40;;
31990;SDS011;18508;49.386;8.370;2023-10-13T10:00:27;7.78;;;3.63;;
31990;SDS011;18508;49.386;8.370;2023-10-13T10:03:19;10.15;;;3.65;;
31990;SDS011;18508;49.386;8.370;2023-10-13T10:06:05;14.20;;;4.43;;
31990;SDS011;18508;49.386;8.370;2023-10-13T10:08:43;10.15;;;4.53;;
31990;SDS011;18508;49.386;8.370;2023-10-13T10:11:33;10.05;;;4.05;;
31990;SDS011;18508;49.386;8.370;2023-10-13T10:14:24;11.82;;;3.95;;
31990;SDS011;18508;49.386;8.370;2023-10-13T10:17:04;8.55;;;4.07;;
31990;SDS011;18508;49.386;8.370;2023-10-13T10:22:25;13.02;;;4.57;;
31990;SDS011;18508;49.386;8.370;2023-10-13T10:25:00;11.00;;;4.60;;
31990;SDS011;18508;49.386;8.370;2023-10-13T10:27:31;6.78;;;3.50;;
31990;SDS011;18508;49.386;8.370;2023-10-13T10:30:00;7.80;;;3.80;;
31990;SDS011;18508;49.386;8.370;2023-10-13T10:32:34;9.73;;;4.45;;
31990;SDS011;18508;49.386;8.370;2023-10-13T10:35:04;11.98;;;4.55;;
31990;SDS011;18508;49.386;8.370;2023-10-13T10:37:36;8.27;;;4.03;;
31990;SDS011;18508;49.386;8.370;2023-10-13T10:40:10;8.85;;;4.28;;
31990;SDS011;18508;49.386;8.370;2023-10-13T10:42:51;12.48;;;4.82;;
31990;SDS011;18508;49.386;8.370;2023-10-13T10:45:19;9.45;;;4.10;;
31990;SDS011;18508;49.386;8.370;2023-10-13T10:47:49;10.55;;;3.80;;
31990;SDS011;18508;49.386;8.370;2023-10-13T10:50:25;8.55;;;4.30;;
31990;SDS011;18508;49.386;8.370;2023-10-13T10:53:03;10.48;;;4.45;;
31990;SDS011;18508;49.386;8.370;2023-10-13T10:55:35;11.00;;;4.10;;
31990;SDS011;18508;49.386;8.370;2023-10-13T10:58:06;11.95;;;4.78;;
31990;SDS011;18508;49.386;8.370;2023-10-13T11:00:52;9.82;;;4.75;;
31990;SDS011;18508;49.386;8.370;2023-10-13T11:03:37;16.15;;;4.22;;
31990;SDS011;18508;49.386;8.370;2023-10-13T11:06:11;8.40;;;4.20;;
31990;SDS011;18508;49.386;8.370;2023-10-13T11:08:44;7.10;;;3.90;;
31990;SDS011;18508;49.386;8.370;2023-10-13T11:11:28;9.73;;;4.25;;
31990;SDS011;18508;49.386;8.370;2023-10-13T11:14:03;8.10;;;4.18;;
31990;SDS011;18508;49.386;8.370;2023-10-13T11:16:45;8.20;;;4.00;;
31990;SDS011;18508;49.386;8.370;2023-10-13T11:19:17;9.30;;;3.90;;
31990;SDS011;18508;49.386;8.370;2023-10-13T11:21:52;9.02;;;4.55;;
31990;SDS011;18508;49.386;8.370;2023-10-13T11:24:22;8.52;;;4.15;;
31990;SDS011;18508;49.386;8.370;2023-10-13T11:26:50;9.13;;;4.15;;
31990;SDS011;18508;49.386;8.370;2023-10-13T11:29:32;9.48;;;4.15;;
31990;SDS011;18508;49.386;8.370;2023-10-13T11:32:01;9.30;;;4.30;;
31990;SDS011;18508;49.386;8.370;2023-10-13T11:34:29;7.32;;;4.00;;
31990;SDS011;18508;49.386;8.370;2023-10-13T11:37:07;8.27;;;4.20;;
31990;SDS011;18508;49.386;8.370;2023-10-13T11:40:08;7.78;;;4.10;;
31990;SDS011;18508;49.386;8.370;2023-10-13T11:42:42;9.40;;;3.53;;
31990;SDS011;18508;49.386;8.370;2023-10-13T11:45:13;6.93;;;4.05;;
31990;SDS011;18508;49.386;8.370;2023-10-13T11:47:55;8.43;;;4.03;;
31990;SDS011;18508;49.386;8.370;2023-10-13T11:50:26;9.10;;;4.05;;
31990;SDS011;18508;49.386;8.370;2023-10-13T11:53:01;9.15;;;4.53;;
31990;SDS011;18508;49.386;8.370;2023-10-13T11:55:36;7.38;;;3.70;;
31990;SDS011;18508;49.386;8.370;2023-10-13T11:58:04;10.52;;;4.15;;
31990;SDS011;18508;49.386;8.370;2023-10-13T12:00:32;9.65;;;4.63;;
31990;SDS011;18508;49.386;8.370;2023-10-13T12:03:15;10.48;;;4.30;;
31990;SDS011;18508;49.386;8.370;2023-10-13T12:06:00;10.20;;;4.28;;
31990;SDS011;18508;49.386;8.370;2023-10-13T12:08:45;6.05;;;3.50;;
31990;SDS011;18508;49.386;8.370;2023-10-13T12:11:20;8.50;;;4.00;;
31990;SDS011;18508;49.386;8.370;2023-10-13T12:14:05;9.27;;;4.25;;
31990;SDS011;18508;49.386;8.370;2023-10-13T12:16:43;9.93;;;4.43;;
31990;SDS011;18508;49.386;8.370;2023-10-13T12:19:15;8.53;;;4.50;;
31990;SDS011;18508;49.386;8.370;2023-10-13T12:21:44;9.52;;;4.38;;
31990;SDS011;18508;49.386;8.370;2023-10-13T12:24:13;6.30;;;3.60;;
31990;SDS011;18508;49.386;8.370;2023-10-13T12:26:58;13.38;;;4.35;;
31990;SDS011;18508;49.386;8.370;2023-10-13T12:29:26;10.30;;;4.13;;
31990;SDS011;18508;49.386;8.370;2023-10-13T12:31:55;11.10;;;4.05;;
31990;SDS011;18508;49.386;8.370;2023-10-13T12:34:35;7.15;;;3.88;;
31990;SDS011;18508;49.386;8.370;2023-10-13T12:37:20;9.55;;;4.55;;
31990;SDS011;18508;49.386;8.370;2023-10-13T12:40:05;5.97;;;4.07;;
31990;SDS011;18508;49.386;8.370;2023-10-13T12:42:53;10.68;;;4.10;;
31990;SDS011;18508;49.386;8.370;2023-10-13T12:45:41;12.02;;;4.25;;
31990;SDS011;18508;49.386;8.370;2023-10-13T12:48:28;7.47;;;4.25;;
31990;SDS011;18508;49.386;8.370;2023-10-13T12:51:14;9.85;;;4.10;;
31990;SDS011;18508;49.386;8.370;2023-10-13T12:54:06;10.57;;;4.10;;
31990;SDS011;18508;49.386;8.370;2023-10-13T12:56:42;8.27;;;4.25;;
31990;SDS011;18508;49.386;8.370;2023-10-13T12:59:12;8.23;;;4.40;;
31990;SDS011;18508;49.386;8.370;2023-10-13T13:01:41;9.57;;;3.85;;
31990;SDS011;18508;49.386;8.370;2023-10-13T13:04:10;8.98;;;3.95;;
31990;SDS011;18508;49.386;8.370;2023-10-13T13:06:45;8.82;;;4.40;;
31990;SDS011;18508;49.386;8.370;2023-10-13T13:09:13;8.85;;;3.92;;
31990;SDS011;18508;49.386;8.370;2023-10-13T13:11:42;7.53;;;4.20;;
31990;SDS011;18508;49.386;8.370;2023-10-13T13:14:17;11.95;;;4.13;;
31990;SDS011;18508;49.386;8.370;2023-10-13T13:16:45;9.02;;;3.80;;
31990;SDS011;18508;49.386;8.370;2023-10-13T13:19:15;7.03;;;3.30;;
31990;SDS011;18508;49.386;8.370;2023-10-13T13:21:50;6.65;;;4.03;;
31990;SDS011;18508;49.386;8.370;2023-10-13T13:24:19;11.15;;;4.32;;
31990;SDS011;18508;49.386;8.370;2023-10-13T13:26:47;10.65;;;3.78;;
31990;SDS011;18508;49.386;8.370;2023-10-13T13:29:24;9.10;;;3.70;;
31990;SDS011;18508;49.386;8.370;2023-10-13T13:31:52;9.30;;;3.83;;
31990;SDS011;18508;49.386;8.370;2023-10-13T13:34:21;7.93;;;4.10;;
31990;SDS011;18508;49.386;8.370;2023-10-13T13:36:49;9.63;;;4.20;;
31990;SDS011;18508;49.386;8.370;2023-10-13T13:39:20;8.73;;;3.92;;
31990;SDS011;18508;49.386;8.370;2023-10-13T13:41:56;9.95;;;4.75;;
31990;SDS011;18508;49.386;8.370;2023-10-13T13:44:26;11.20;;;3.92;;
31990;SDS011;18508;49.386;8.370;2023-10-13T13:47:02;9.50;;;4.53;;
31990;SDS011;18508;49.386;8.370;2023-10-13T13:49:38;7.07;;;3.83;;
31990;SDS011;18508;49.386;8.370;2023-10-13T13:52:07;11.30;;;4.18;;
31990;SDS011;18508;49.386;8.370;2023-10-13T13:54:36;12.75;;;4.28;;
31990;SDS011;18508;49.386;8.370;2023-10-13T13:57:07;9.50;;;3.80;;
31990;SDS011;18508;49.386;8.370;2023-10-13T13:59:37;10.15;;;4.10;;
31990;SDS011;18508;49.386;8.370;2023-10-13T14:02:05;7.32;;;3.40;;
31990;SDS011;18508;49.386;8.370;2023-10-13T14:04:47;12.10;;;4.32;;
31990;SDS011;18508;49.386;8.370;2023-10-13T14:07:17;10.02;;;4.57;;
31990;SDS011;18508;49.386;8.370;2023-10-13T14:09:49;9.95;;;4.47;;
31990;SDS011;18508;49.386;8.370;2023-10-13T14:12:18;10.25;;;3.85;;
31990;SDS011;18508;49.386;8.370;2023-10-13T14:15:10;11.05;;;4.13;;
31990;SDS011;18508;49.386;8.370;2023-10-13T14:17:50;7.03;;;3.90;;
31990;SDS011;18508;49.386;8.370;2023-10-13T14:20:18;5.90;;;3.40;;
31990;SDS011;18508;49.386;8.370;2023-10-13T14:22:47;9.88;;;3.85;;
31990;SDS011;18508;49.386;8.370;2023-10-13T14:25:15;8.57;;;4.15;;
31990;SDS011;18508;49.386;8.370;2023-10-13T14:27:44;10.93;;;4.18;;
31990;SDS011;18508;49.386;8.370;2023-10-13T14:30:16;8.18;;;3.80;;
31990;SDS011;18508;49.386;8.370;2023-10-13T14:32:48;9.00;;;4.07;;
31990;SDS011;18508;49.386;8.370;2023-10-13T14:35:16;10.15;;;3.80;;
31990;SDS011;18508;49.386;8.370;2023-10-13T14:37:45;8.85;;;3.55;;
31990;SDS011;18508;49.386;8.370;2023-10-13T14:40:13;12.95;;;4.35;;
31990;SDS011;18508;49.386;8.370;2023-10-13T14:42:42;9.65;;;3.67;;
31990;SDS011;18508;49.386;8.370;2023-10-13T14:45:12;8.80;;;3.65;;
31990;SDS011;18508;49.386;8.370;2023-10-13T14:47:44;10.45;;;3.15;;
31990;SDS011;18508;49.386;8.370;2023-10-13T14:50:13;9.23;;;3.35;;
31990;SDS011;18508;49.386;8.370;2023-10-13T14:52:47;9.15;;;4.07;;
31990;SDS011;18508;49.386;8.370;2023-10-13T14:55:16;7.97;;;3.40;;
31990;SDS011;18508;49.386;8.370;2023-10-13T14:57:48;10.30;;;4.20;;
31990;SDS011;18508;49.386;8.370;2023-10-13T15:00:18;13.68;;;4.07;;
31990;SDS011;18508;49.386;8.370;2023-10-13T15:02:54;8.13;;;4.10;;
31990;SDS011;18508;49.386;8.370;2023-10-13T15:05:22;9.75;;;3.60;;
31990;SDS011;18508;49.386;8.370;2023-10-13T15:07:51;11.68;;;4.15;;
31990;SDS011;18508;49.386;8.370;2023-10-13T15:10:19;12.18;;;3.50;;
31990;SDS011;18508;49.386;8.370;2023-10-13T15:12:47;7.20;;;3.75;;
31990;SDS011;18508;49.386;8.370;2023-10-13T15:15:16;12.43;;;3.72;;
31990;SDS011;18508;49.386;8.370;2023-10-13T15:17:46;8.73;;;3.28;;
31990;SDS011;18508;49.386;8.370;2023-10-13T15:20:18;9.27;;;3.92;;
31990;SDS011;18508;49.386;8.370;2023-10-13T15:22:46;10.85;;;3.50;;
31990;SDS011;18508;49.386;8.370;2023-10-13T15:25:16;8.63;;;3.50;;
31990;SDS011;18508;49.386;8.370;2023-10-13T15:27:58;8.10;;;3.78;;
31990;SDS011;18508;49.386;8.370;2023-10-13T15:30:29;9.10;;;3.83;;
31990;SDS011;18508;49.386;8.370;2023-10-13T15:33:11;9.68;;;3.83;;
31990;SDS011;18508;49.386;8.370;2023-10-13T15:35:42;9.32;;;3.38;;
31990;SDS011;18508;49.386;8.370;2023-10-13T15:38:12;8.25;;;3.58;;